X  Stänga Metar väderdata för luftfart     LYNI Nis Airport
Temperatur
4°C Temperatur
1°C Daggpunkt
81% Fuktighet



Vind
19 KM/T
12 MPH
5 M/S
10 KTS



30°
NNÖ
Nuvarande omständigheter

Ljus Regn Ljus Regn
Tryck 1018.92 (hPa) - 30.09 (inHg)
Synlighet 6.2 (mil) - 10 (km)
Flygplats
Flygplatskod LYNI

Plats: Nis Airport
Distans: 63 (km)

Metar:
LYNI 010930Z 03010KT 360V070 9999 -RA FEW017 SCT040 04/01 Q1019 NOSIG

Tid: 01-12-2022 10:30 CET